Observations for WASHINGTON NATIONAL, VA (DCA)

KDCA 142352Z 36009KT 10SM OVC190 02/M09 A3006 RMK AO2 SLP178 T00171089 10050 20017 53032
KDCA 142252Z 34012KT 10SM BKN220 02/M09 A3003 RMK AO2 SLP166 T00221089  
KDCA 142152Z 35011KT 10SM FEW055 BKN220 03/M08 A2999 RMK AO2 SLP155 T00281083   
KDCA 142052Z 34012KT 10SM FEW060 BKN250 04/M09 A2996 RMK AO2 SLP145 T00391089 51027 
KDCA 141952Z 34011KT 10SM FEW060 BKN250 04/M09 A2993 RMK AO2 SLP135 T00441089   
KDCA 141852Z 35015KT 10SM SCT060 BKN250 05/M09 A2991 RMK AO2 SLP129 T00501089   
KDCA 141752Z 33018G27KT 10SM FEW045 SCT060 BKN250 05/M09 A2988 RMK AO2 PK WND 34027/1751 SLP118 T00501089 10067 20022 50037 
KDCA 141652Z 32015G26KT 10SM SCT047 BKN060 05/M07 A2988 RMK AO2 PK WND 34029/1553 SLP119 T00501067  
KDCA 141452Z 30017G23KT 10SM BKN050 BKN130 07/M05 A2977 RMK AO2 SLP082 T00671050 53052  
KDCA 141352Z 29011G16KT 10SM SCT050 SCT080 05/M06 A2972 RMK AO2 SLP063 T00501056
KDCA 141252Z 26005KT 10SM SCT065 SCT080 SCT100 03/M07 A2967 RMK AO2 SLP047 T00331072
KDCA 141152Z 23006KT 10SM SCT065 BKN080 BKN100 03/M08 A2962 RMK AO2 SLP029 T00281078 10033 20017 53035  
KDCA 141052Z 24007KT 10SM BKN075 03/M08 A2957 RMK AO2 SLP011 T00331078  
KDCA 141018Z 23009KT 10SM OVC075 03/M07 A2954 RMK AO2 T00281067
KDCA 140952Z 23008KT 10SM SCT080 02/M07 A2953 RMK AO2 SLP997 T00221067  
KDCA 140852Z 19010KT 10SM SCT080 02/M07 A2952 RMK AO2 SLP995 T00221072 56016
KDCA 140752Z 19009KT 10SM SCT100 02/M08 A2953 RMK AO2 SLP000 T00171078  
KDCA 140652Z 19010KT 10SM BKN110 02/M09 A2954 RMK AO2 SLP003 T00221089  
KDCA 140552Z 20010KT 10SM OVC100 03/M09 A2957 RMK AO2 SLP011 60000 T00281094 10028 20011 56034  
KDCA 140452Z 19014KT 10SM OVC090 02/M09 A2960 RMK AO2 SLP021 T00221089 400221050
KDCA 140352Z 18013KT 10SM SCT070 BKN080 OVC100 02/M09 A2963 RMK AO2 SLP033 T00221094
KDCA 140252Z 19009KT 10SM FEW055 SCT070 OVC090 02/M11 A2967 RMK AO2 SLP045 60000 T00171106 55024
KDCA 140152Z 17011KT 9SM BKN055 OVC070 02/M09 A2966 RMK AO2 SNE51 PRESFR SLP041 P0000 T00171094 
KDCA 140052Z 18011KT 9SM -SN OVC065 01/M10 A2971 RMK AO2 SNB10 SLP058 P0000 T00111100   
KDCA 140010Z 18008KT 10SM -SN BKN070 OVC090 01/M11 A2972 RMK AO2 SNB10 P0000 T00111111
KDCA 132352Z 19008KT 10SM SCT085 OVC110 01/M12 A2974 RMK AO2 SLP069 T00111117 10017 20006 58014